Flight Track Log - Related Links

Times and Time Zones

All times are in EDT time to prevent confusion due to time zone crossing. See the CES5389 flight status page for this flight to view local times or setup timezone preferences in your user account.

Time Position Orientation Groundspeed Altitude Reporting Facility
EDT Latitude Longitude Course Direction KTS MPH feet Rate Location/Type
Mon 08:25:29 PM 31.1830 121.1410 327° Northwest 291 335 10,200  Level FlightAware ADS-B
Mon 08:25:59 PM 31.2200 121.1190 333° Northwest 296 341 10,200  Level FlightAware ADS-B
Mon 08:26:14 PM 31.2410 121.1170 355° North 294 338 10,200  Level FlightAware ADS-B
Mon 08:26:49 PM 31.2880 121.1170 360° North 305 351 10,200 918 Level FlightAware ADS-B
Mon 08:27:39 PM 31.3630 121.1170 360° North 310 357 11,500 1,267 Climbing FlightAware ADS-B
Mon 08:28:19 PM 31.4260 121.1170 360° North 358 412 12,100 1,050 Climbing FlightAware ADS-B
Mon 08:28:59 PM 31.4900 121.0950 344° North 371 427 12,900 1,610 Climbing FlightAware ADS-B
Mon 08:29:41 PM 31.5540 121.0620 336° Northwest 377 434 14,300 1,976 Climbing FlightAware ADS-B
Mon 08:30:24 PM 31.6250 121.0240 336° Northwest 392 451 15,700 1,024 Climbing FlightAware ADS-B
Mon 08:31:03 PM 31.6800 120.9940 335° Northwest 392 451 15,700  Level FlightAware ADS-B
Mon 08:31:51 PM 31.7470 120.9570 335° Northwest 392 451 15,700  Level FlightAware ADS-B
Mon 08:32:29 PM 31.8000 120.9280 335° Northwest 392 451 15,700  Level FlightAware ADS-B
Mon 08:33:15 PM 31.8640 120.8930 335° Northwest 392 451 15,700  Level FlightAware ADS-B
Mon 08:33:51 PM 31.9140 120.8650 335° Northwest 392 451 15,700 980 Level FlightAware ADS-B
Mon 08:36:00 PM 32.0076 120.6171 294° West  Level Estimated
Mon 08:37:00 PM 32.0509 120.5017 294° West  Level Estimated
Mon 08:38:00 PM 32.0942 120.3861 294° West  Level Estimated
Mon 08:39:00 PM 32.1373 120.2704 294° West  Level Estimated
Mon 08:39:53 PM 32.2220 120.1140 294° West 431 496 22,200  Level FlightAware ADS-B
Mon 08:40:00 PM 32.1804 120.1546 294° West  Level Estimated
Mon 08:40:39 PM 32.2300 120.0030 275° West 434 499 23,300  Level FlightAware ADS-B
Mon 08:41:20 PM 32.2370 119.9140 275° West 433 498 24,200 1,186 Climbing FlightAware ADS-B
Mon 08:42:05 PM 32.2440 119.8060 274° West 438 504 25,000 918 Climbing FlightAware ADS-B
Mon 08:42:45 PM 32.2280 119.7090 259° West 448 516 25,500 375 Climbing FlightAware ADS-B
Mon 08:43:41 PM 32.1960 119.5850 253° West 450 518 25,600 52 Climbing FlightAware ADS-B
Mon 08:44:40 PM 32.1560 119.4370 252° West 454 522 25,600  Level FlightAware ADS-B
Mon 08:45:30 PM 32.1250 119.3200 253° West 454 522 25,600  Level FlightAware ADS-B
Mon 08:46:20 PM 32.0940 119.2000 253° West 451 519 25,600  Level FlightAware ADS-B
Mon 08:47:16 PM 32.0640 119.0870 253° West 451 519 25,600  Level FlightAware ADS-B
Mon 08:47:51 PM 32.0460 119.0170 253° West 451 519 25,600  Level FlightAware ADS-B
Mon 08:48:39 PM 32.0210 118.9210 253° West 451 519 25,600  Level FlightAware ADS-B
Mon 08:49:15 PM 32.0020 118.8490 253° West 451 519 25,600  Level FlightAware ADS-B
Mon 08:49:54 PM 31.9820 118.7710 253° West 451 519 25,600  Level FlightAware ADS-B
Mon 08:52:00 PM 32.0911 118.5391 299° West  Level Estimated
Mon 08:53:00 PM 32.1429 118.4285 299° West  Level Estimated
Mon 08:54:00 PM 32.1946 118.3178 299° West  Level Estimated
Mon 08:55:00 PM 32.2463 118.2069 299° West  Level Estimated
Mon 08:56:00 PM 32.2978 118.0959 299° West  Level Estimated
Mon 08:57:00 PM 32.3492 117.9848 299° West  Level Estimated
Mon 08:58:00 PM 32.4005 117.8736 299° West  Level Estimated
Mon 08:59:00 PM 32.4517 117.7622 299° West  Level Estimated
Mon 09:00:00 PM 32.5029 117.6507 299° West  Level Estimated
Mon 09:01:00 PM 32.5539 117.5391 298° West  Level Estimated
Mon 09:02:00 PM 32.6048 117.4273 298° West  Level Estimated
Mon 09:03:00 PM 32.6557 117.3154 298° West  Level Estimated
Mon 09:04:00 PM 32.7064 117.2034 298° West  Level Estimated
Mon 09:05:00 PM 32.7570 117.0913 298° West  Level Estimated
Mon 09:06:00 PM 32.8075 116.9790 298° West  Level Estimated
Mon 09:07:00 PM 32.8580 116.8667 298° West  Level Estimated
Mon 09:08:00 PM 32.9083 116.7541 298° West  Level Estimated
Mon 09:09:00 PM 32.9585 116.6415 298° West  Level Estimated
Mon 09:10:00 PM 33.0087 116.5287 298° West  Level Estimated
Mon 09:11:00 PM 33.0587 116.4158 298° West  Level Estimated
Mon 09:12:00 PM 33.1086 116.3028 298° West  Level Estimated
Mon 09:13:00 PM 33.1585 116.1896 298° West  Level Estimated
Mon 09:14:00 PM 33.2082 116.0764 298° West  Level Estimated
Mon 09:15:00 PM 33.2578 115.9630 298° West  Level Estimated
Mon 09:16:00 PM 33.3073 115.8494 298° West  Level Estimated
Mon 09:17:00 PM 33.3567 115.7357 298° West  Level Estimated
Mon 09:18:00 PM 33.4060 115.6219 297° West  Level Estimated
Mon 09:19:00 PM 33.4552 115.5080 297° West  Level Estimated
Mon 09:20:00 PM 33.5040 115.3947 297° West  Level Estimated
Mon 09:21:00 PM 33.5527 115.2812 297° West  Level Estimated
Mon 09:22:00 PM 33.6013 115.1676 297° West  Level Estimated
Mon 09:23:00 PM 33.6498 115.0538 297° West  Level Estimated
Mon 09:24:00 PM 33.6982 114.9400 297° West  Level Estimated
Mon 09:25:00 PM 33.7465 114.8260 297° West  Level Estimated
Mon 09:26:00 PM 33.7946 114.7119 297° West  Level Estimated
Mon 09:27:00 PM 33.8427 114.5976 297° West  Level Estimated
Mon 09:28:00 PM 33.8907 114.4832 297° West  Level Estimated
Mon 09:29:00 PM 33.9385 114.3687 297° West  Level Estimated
Mon 09:30:00 PM 33.9863 114.2541 297° West  Level Estimated
Mon 09:31:00 PM 34.0339 114.1394 297° West  Level Estimated
Mon 09:32:00 PM 34.0815 114.0245 297° West  Level Estimated
Mon 09:33:00 PM 34.1289 113.9094 297° West  Level Estimated
Mon 09:34:00 PM 34.1762 113.7943 296° West  Level Estimated
Mon 09:35:00 PM 34.2234 113.6790 296° West  Level Estimated
Mon 09:36:00 PM 34.2705 113.5636 296° West  Level Estimated
Mon 09:37:00 PM 34.3175 113.4481 296° West  Level Estimated
Mon 09:38:00 PM 34.3644 113.3324 296° West  Level Estimated
Mon 09:39:00 PM 34.4112 113.2166 296° West  Level Estimated
Mon 09:40:00 PM 34.4579 113.1007 296° West  Level Estimated
Mon 09:41:00 PM 34.5044 112.9846 296° West  Level Estimated
Mon 09:42:00 PM 34.5509 112.8684 296° West  Level Estimated
Mon 09:43:00 PM 34.5972 112.7521 296° West  Level Estimated
Mon 09:44:00 PM 34.6377 112.6501 296° West  Level Estimated
Mon 09:45:00 PM 34.6782 112.5480 296° West  Level Estimated
Mon 09:46:00 PM 34.7185 112.4457 296° West  Level Estimated
Mon 09:47:00 PM 34.7411 112.3883 296° West  Level Estimated
Mon 09:48:00 PM 34.7411 112.3883 68° East  Level Estimated
Mon 09:49:00 PM 34.7411 112.3883 68° East  Level Estimated
Mon 09:50:00 PM 34.7411 112.3883 68° East  Level Estimated
Mon 09:51:00 PM 34.7411 112.3883 68° East  Level Estimated
Mon 09:52:00 PM 34.7411 112.3883 68° East  Level Estimated
Mon 09:53:00 PM 34.7411 112.3883 68° East  Level Estimated
Mon 09:54:00 PM 34.7411 112.3883 68° East  Level Estimated
Mon 09:55:00 PM 34.7411 112.3883 68° East  Level Estimated
Mon 09:56:00 PM 34.7411 112.3883 68° East  Level Estimated
Mon 09:57:00 PM 34.7411 112.3883 68° East  Level Estimated
Mon 09:58:00 PM 34.7411 112.3883 68° East  Level Estimated
Mon 09:59:00 PM 34.7411 112.3883 68° East  Level Estimated
Mon 10:00:00 PM 34.7411 112.3883 68° East  Level Estimated
Mon 10:01:00 PM 34.7411 112.3883 68° East  Level Estimated
Mon 10:02:00 PM 34.7411 112.3883 68° East  Level Estimated
Mon 10:03:00 PM 34.7411 112.3883 68° East  Level Estimated
Mon 10:04:00 PM 34.7411 112.3883 68° East  Level Estimated
Mon 10:05:00 PM 34.7411 112.3883 68° East  Level Estimated
Mon 10:06:00 PM 34.7411 112.3883 68° East  Level Estimated
Mon 10:07:00 PM 34.7411 112.3883 68° East  Level Estimated
Mon 10:08:00 PM 34.7411 112.3883 68° East  Level Estimated

Login

Don't have an account? Register now (free) for customized features, flight alerts, and more!